• Join FlightAware (Why Join?)
  • Login
  • US Flag 
02:06PM EDT


 

Airport Tracker/Info


-or-


 

Live Flight TrackerFlight Track Log ✈ SWA1035 ✈ 22-Apr-2013 ✈ KABQ - KPDX

Flight Track Log - Related Links

Times and Time Zones

All times are in EDT time to prevent confusion due to time zone crossing. See the SWA1035 flight status page for this flight to view local times or setup timezone preferences in your user account.

Time Position Orientation Groundspeed Altitude Reporting Facility
EDT Latitude Longitude Course Direction KTS MPH feet Rate Location/Type
05:24PM 35.0192 -106.6350 299° West 166 191 6,000  Level Albuquerque Center
05:25PM 35.0422 -106.6856 299° West 240 276 7,600 1,860 Climbing Albuquerque Center
05:26PM 35.1275 -106.7228 340° North 266 306 10,400 2,700 Climbing Albuquerque Center
05:27PM 35.2108 -106.7608 340° North 314 361 13,200 2,940 Climbing Albuquerque Center
05:28PM 35.3014 -106.7986 341° North 341 392 16,500 2,580 Climbing Albuquerque Center
05:29PM 35.3942 -106.8381 341° North 351 404 18,600 1,200 Climbing Albuquerque Center
05:30PM 35.4842 -106.8897 335° Northwest 356 410 19,000 180 Climbing Albuquerque Center
05:31PM 35.5975 -106.9469 338° Northwest 365 420 19,000 660 Level Albuquerque Center
05:32PM 35.6850 -106.9892 339° North 368 423 20,400 1,980 Climbing Albuquerque Center
05:33PM 35.7947 -107.0461 337° Northwest 379 436 23,100 2,220 Climbing Albuquerque Center
05:34PM 35.8900 -107.0967 337° Northwest 387 445 25,100 1,800 Climbing Albuquerque Center
05:36PM 35.9956 -107.1506 338° Northwest 400 460 26,900 1,740 Climbing Albuquerque Center
05:37PM 36.1097 -107.2103 337° Northwest 414 476 28,800 1,920 Climbing Albuquerque Center
05:38PM 36.2328 -107.2725 338° Northwest 424 488 30,900 1,980 Climbing Albuquerque Center
05:39PM 36.3358 -107.3269 337° Northwest 422 486 32,900 1,800 Climbing Albuquerque Center
05:40PM 36.4150 -107.4083 320° Northwest 390 449 34,500 1,080 Climbing Denver Center
05:41PM 36.4894 -107.5014 315° West 394 453 35,000 240 Climbing Denver Center
05:42PM 36.5764 -107.6083 315° West 395 455 35,000 480 Level Denver Center
05:43PM 36.6506 -107.7000 315° West 391 450 36,000 480 Climbing Denver Center
05:44PM 36.7364 -107.8072 315° West 393 452 36,000  Level Denver Center
05:45PM 36.8092 -107.9000 314° West 393 452 36,000  Level Denver Center
05:46PM 36.8944 -108.0050 315° West 387 445 36,000 60 Level Denver Center
05:47PM 36.9664 -108.0961 315° West 385 443 36,200 720 Climbing Denver Center
05:48PM 37.0372 -108.1864 315° West 383 441 37,500 840 Climbing Denver Center
05:49PM 37.1192 -108.2897 315° West 377 434 38,000 240 Climbing Denver Center
05:50PM 37.1908 -108.3811 315° West 380 437 38,000  Level Denver Center
05:51PM 37.2725 -108.4869 314° West 379 436 38,000  Level Denver Center
05:52PM 37.3428 -108.5739 315° West 374 430 38,000  Level Denver Center
05:53PM 37.4244 -108.6778 315° West 373 429 38,000  Level Denver Center
05:54PM 37.4958 -108.7700 314° West 383 441 38,000  Level Denver Center
05:55PM 37.5789 -108.8775 314° West 382 440 38,000  Level Denver Center
05:56PM 37.6494 -108.9683 314° West 380 437 38,000  Level Denver Center
05:57PM 37.7192 -109.0589 314° West 376 433 38,000  Level Denver Center
05:58PM 37.8017 -109.1647 315° West 379 436 38,000  Level Denver Center
05:59PM 37.8725 -109.2581 314° West 384 442 38,000  Level Denver Center
06:00PM 37.9553 -109.3661 314° West 384 442 38,000  Level Denver Center
06:01PM 38.0269 -109.4617 314° West 388 447 38,000  Level Denver Center
06:02PM 38.1042 -109.5619 314° West 388 447 38,000  Level Denver Center
06:03PM 38.1850 -109.6697 314° West 377 434 38,000  Level Denver Center
06:04PM 38.2556 -109.7625 314° West 380 437 38,000  Level Denver Center
06:05PM 38.3247 -109.8553 314° West 377 434 38,000  Level Denver Center
06:06PM 38.4058 -109.9628 314° West 377 434 38,000  Level Denver Center
06:07PM 38.4836 -110.0394 322° Northwest 380 437 38,000  Level Denver Center
06:08PM 38.5858 -110.1142 330° Northwest 378 435 38,000  Level Denver Center
06:09PM 38.6308 -110.1486 329° Northwest 380 437 38,000  Level Salt Lake Center
06:09PM 38.6572 -110.1692 329° Northwest 376 433 38,000  Level Denver Center
06:10PM 38.7742 -110.2514 331° Northwest 376 433 38,000 60 Level Denver Center
06:11PM 38.8650 -110.3083 334° Northwest 378 435 38,200 300 Climbing Denver Center
06:12PM 38.9100 -110.3417 330° Northwest 378 435 38,500 780 Climbing Salt Lake Center
06:13PM 39.0056 -110.4250 326° Northwest 371 427 39,500 720 Climbing Salt Lake Center
06:14PM 39.0856 -110.4975 325° Northwest 368 423 40,000 300 Climbing Salt Lake Center
06:14PM 39.1253 -110.5331 325° Northwest 367 422 40,000  Level Denver Center
06:16PM 39.2186 -110.6167 325° Northwest 366 421 40,000  Level Denver Center
06:16PM 39.2592 -110.6536 325° Northwest 365 420 40,000  Level Salt Lake Center
06:17PM 39.3531 -110.7383 325° Northwest 368 423 40,000  Level Salt Lake Center
06:18PM 39.4197 -110.8233 315° West 356 410 40,000  Level Salt Lake Center
06:19PM 39.4803 -110.9144 311° West 347 399 40,000  Level Salt Lake Center
06:20PM 39.5544 -111.0242 311° West 360 414 40,000  Level Salt Lake Center
06:21PM 39.6214 -111.1228 311° West 377 434 40,000  Level Salt Lake Center
06:22PM 39.6997 -111.2397 311° West 382 440 40,000  Level Salt Lake Center
06:23PM 39.7583 -111.3264 311° West 367 422 40,000  Level Salt Lake Center
06:24PM 39.8256 -111.4286 311° West 359 413 40,000  Level Salt Lake Center
06:25PM 39.8978 -111.5364 311° West 355 409 40,000  Level Salt Lake Center
06:26PM 39.9667 -111.6389 311° West 359 413 40,000  Level Salt Lake Center
06:27PM 40.0333 -111.7406 311° West 368 423 40,000  Level Salt Lake Center
06:28PM 40.0997 -111.8417 311° West 367 422 40,000  Level Salt Lake Center
06:29PM 40.1661 -111.9428 311° West 367 422 40,000  Level Salt Lake Center
06:30PM 40.2331 -112.0453 311° West 370 426 40,000  Level Salt Lake Center
06:31PM 40.2992 -112.1481 310° West 367 422 40,000  Level Salt Lake Center
06:32PM 40.3664 -112.2506 311° West 371 427 40,000  Level Salt Lake Center
06:33PM 40.4336 -112.3550 310° West 374 430 40,000  Level Salt Lake Center
06:35PM 40.5044 -112.4647 310° West 391 450 40,000  Level Salt Lake Center
06:36PM 40.5908 -112.5989 310° West 400 460 40,000  Level Salt Lake Center
06:37PM 40.6639 -112.7119 310° West 403 464 40,000  Level Salt Lake Center
06:38PM 40.7344 -112.8239 310° West 398 458 40,000  Level Salt Lake Center
06:39PM 40.8058 -112.9358 310° West 397 457 40,000  Level Salt Lake Center
06:40PM 40.8778 -113.0492 310° West 401 461 40,000  Level Salt Lake Center
06:41PM 40.9492 -113.1636 310° West 402 463 40,100  Climbing Salt Lake Center
06:42PM 41.0197 -113.2736 310° West 394 453 40,000 -60 Descending Salt Lake Center
06:43PM 41.0869 -113.3825 309° West 386 444 40,000  Level Salt Lake Center
06:45PM 41.2367 -113.6258 309° West 388 447 40,000  Level Salt Lake Center
06:46PM 41.3039 -113.7336 310° West 382 440 40,000  Level Salt Lake Center
06:47PM 41.3689 -113.8419 309° West 378 435 40,000  Level Salt Lake Center
06:48PM 41.4364 -113.9514 309° West 380 437 40,000  Level Salt Lake Center
06:49PM 41.5058 -114.0622 310° West 387 445 40,000  Level Salt Lake Center
06:50PM 41.5725 -114.1717 309° West 383 441 40,000  Level Salt Lake Center
06:51PM 41.6397 -114.2817 309° West 382 440 40,000  Level Salt Lake Center
06:52PM 41.7078 -114.3931 309° West 386 444 40,000  Level Salt Lake Center
06:53PM 41.7850 -114.5214 309° West 390 449 40,000  Level Salt Lake Center
06:54PM 41.8511 -114.6306 309° West 396 456 40,000  Level Salt Lake Center
06:55PM 41.9264 -114.7569 309° West 387 445 40,000  Level Salt Lake Center
06:56PM 41.9925 -114.8683 309° West 399 459 40,000  Level Salt Lake Center
06:57PM 42.0650 -114.9919 308° West 378 435 40,000  Level Salt Lake Center
06:58PM 42.1264 -115.0964 308° West 395 455 40,000  Level Salt Lake Center
06:59PM 42.2017 -115.2239 309° West 390 449 40,000  Level Salt Lake Center
07:00PM 42.2675 -115.3364 308° West 394 453 40,000  Level Salt Lake Center
07:01PM 42.3425 -115.4647 308° West 389 448 40,000  Level Salt Lake Center
07:02PM 42.4072 -115.5758 308° West 391 450 40,000  Level Salt Lake Center
07:03PM 42.4817 -115.7050 308° West 389 448 40,000  Level Salt Lake Center
07:04PM 42.5456 -115.8161 308° West 390 449 40,000  Level Salt Lake Center
07:05PM 42.6094 -115.9272 308° West 388 447 40,000  Level Salt Lake Center
07:06PM 42.6833 -116.0561 308° West 388 447 40,000  Level Salt Lake Center
07:07PM 42.7472 -116.1678 308° West 389 448 40,000  Level Salt Lake Center
07:08PM 42.8217 -116.2978 308° West 388 447 40,000  Level Salt Lake Center
07:09PM 42.8847 -116.4100 308° West 388 447 40,000  Level Salt Lake Center
07:10PM 42.9475 -116.5211 308° West 386 444 40,000  Level Salt Lake Center
07:11PM 43.0214 -116.6542 307° West 391 450 40,000  Level Salt Lake Center
07:12PM 43.0842 -116.7667 307° West 389 448 40,000  Level Salt Lake Center
07:13PM 43.1569 -116.8964 308° West 385 443 40,000  Level Salt Lake Center
07:15PM 43.2183 -117.0078 307° West 382 440 40,000  Level Salt Lake Center
07:16PM 43.2797 -117.1200 307° West 382 440 40,000  Level Salt Lake Center
07:17PM 43.3514 -117.2481 308° West 378 435 40,000  Level Salt Lake Center
07:18PM 43.4114 -117.3581 307° West 375 432 40,000  Level Salt Lake Center
07:19PM 43.4806 -117.4858 307° West 372 428 40,000  Level Salt Lake Center
07:20PM 43.5403 -117.5956 307° West 372 428 40,000  Level Salt Lake Center
07:21PM 43.5994 -117.7053 307° West 373 429 40,000  Level Salt Lake Center
07:22PM 43.6689 -117.8344 307° West 374 430 40,000  Level Salt Lake Center
07:23PM 43.7283 -117.9442 307° West 372 428 40,000  Level Salt Lake Center
07:24PM 43.7986 -118.0756 307° West 378 435 40,000  Level Salt Lake Center
07:25PM 43.8575 -118.1864 306° West 374 430 40,000  Level Salt Lake Center
07:26PM 43.9183 -118.2997 307° West 380 437 40,000  Level Salt Lake Center
07:27PM 43.9881 -118.4300 307° West 378 435 40,000  Level Salt Lake Center
07:28PM 44.0467 -118.5433 306° West 376 433 40,000  Level Salt Lake Center
07:29PM 44.1156 -118.6756 306° West 378 435 40,000  Level Salt Lake Center
07:30PM 44.1514 -118.7514 303° West 378 435 40,000  Level Seattle Center
07:31PM 44.2219 -118.8836 307° West 379 436 40,000  Level Seattle Center
07:32PM 44.2803 -118.9978 306° West 378 435 40,000  Level Seattle Center
07:33PM 44.3375 -119.1097 306° West 373 429 40,000  Level Seattle Center
07:34PM 44.4069 -119.2414 306° West 374 430 40,000  Level Seattle Center
07:35PM 44.4664 -119.3517 307° West 383 441 40,000  Level Seattle Center
07:36PM 44.5289 -119.4725 306° West 386 444 40,000  Level Seattle Center
07:37PM 44.5908 -119.5917 306° West 381 438 40,000  Level Seattle Center
07:38PM 44.6500 -119.7111 305° West 376 433 40,000  Level Seattle Center
07:39PM 44.7119 -119.8292 306° West 374 430 40,000  Level Seattle Center
07:40PM 44.7883 -119.9700 307° West 379 436 40,000  Level Seattle Center
07:41PM 44.8500 -120.0883 306° West 378 435 40,000  Level Seattle Center
07:42PM 44.9136 -120.2069 307° West 380 437 40,000  Level Seattle Center
07:43PM 44.9753 -120.3264 306° West 380 437 40,000  Level Seattle Center
07:44PM 45.0386 -120.4475 307° West 384 442 40,000 -780 Level Seattle Center
07:45PM 45.1006 -120.5667 306° West 378 435 38,500 -2,100 Descending Seattle Center
07:46PM 45.1617 -120.6858 306° West 375 432 35,800 -2,760 Descending Seattle Center
07:47PM 45.2225 -120.7997 307° West 368 423 32,900 -2,940 Descending Seattle Center
07:48PM 45.2817 -120.9161 306° West 364 419 29,900 -2,700 Descending Seattle Center
07:49PM 45.3403 -121.0331 306° West 366 421 27,500 -2,400 Descending Seattle Center
07:50PM 45.3803 -121.1717 292° West 383 441 25,100 -2,820 Descending Seattle Center
07:51PM 45.4158 -121.3650 285° West 416 479 21,800 -3,120 Descending Seattle Center
07:51PM 45.4256 -121.4300 282° West 410 472 20,600 -2,460 Descending Seattle Center
07:52PM 45.4461 -121.5056 291° West 410 472 19,300 -2,460 Descending Seattle Center
07:52PM 45.4544 -121.5753 280° West 381 438 18,100 -2,100 Descending Seattle Center
07:53PM 45.4706 -121.6464 288° West 387 445 17,200 -2,400 Descending Seattle Center
07:53PM 45.4797 -121.7158 281° West 361 415 15,700 -2,700 Descending Seattle Center
07:54PM 45.4931 -121.7847 285° West 368 423 14,500 -1,500 Descending Seattle Center
07:54PM 45.5056 -121.8594 283° West 353 406 14,200 -720 Descending Seattle Center
07:55PM 45.5167 -121.9128 287° West 350 403 13,800 -900 Descending Seattle Center
07:55PM 45.5217 -121.9792 276° West 296 341 13,300 -1,020 Descending Seattle Center
07:56PM 45.5311 -122.0303 285° West 319 367 12,800 -1,440 Descending Seattle Center
07:56PM 45.5369 -122.0842 279° West 295 339 12,000 -1,680 Descending Seattle Center
07:57PM 45.5547 -122.1406 294° West 296 341 11,100 -1,500 Descending Seattle Center
07:57PM 45.5658 -122.1925 287° West 289 333 10,500 -1,380 Descending Seattle Center
07:58PM 45.5864 -122.2639 292° West 283 326 9,700 -1,260 Descending Seattle Center
07:59PM 45.5953 -122.3039 288° West 269 310 9,100 -1,620 Descending Seattle Center
07:59PM 45.6136 -122.3617 294° West 273 314 8,100 -780 Descending Seattle Center
08:00PM 45.6414 -122.4522 294° West 261 300 7,900 -240 Descending Seattle Center
08:01PM 45.6519 -122.4875 293° West 222 255 7,800 -900 Descending Seattle Center
08:01PM 45.6686 -122.5317 298° West 237 273 7,000 -1,380 Descending Seattle Center
08:02PM 45.6761 -122.5642 288° West 220 253 6,400 -1,500 Descending Seattle Center
08:02PM 45.6922 -122.6094 297° West 222 255 5,500 -1,320 Descending Seattle Center
08:02PM 45.6997 -122.6381 291° West 220 253 5,200 -1,200 Descending Seattle Center
08:03PM 45.7092 -122.6919 284° West 228 262 4,300 -1,140 Descending Seattle Center
08:04PM 45.6975 -122.7131 232° Southwest 193 222 4,100 -1,020 Descending Seattle Center
08:04PM 45.6728 -122.7369 214° Southwest 186 214 3,300 -1,560 Descending Seattle Center
08:05PM 45.6500 -122.7356 178° South 156 180 2,400 -1,500 Descending Seattle Center
08:05PM 45.6383 -122.7117 125° Southeast 172 198 1,800 -1,020 Descending Seattle Center
08:06PM 45.6297 -122.6883 118° Southeast 140 161 1,500 -840 Descending Seattle Center
08:06PM 45.6197 -122.6594 116° Southeast 156 180 1,000 -840 Descending Seattle Center
08:07PM 45.6075 -122.6325 123° Southeast 148 170 600 -540 Descending Seattle Center
08:07PM 45.5961 -122.5994 116° Southeast 154 177 500 -180 Descending Seattle Center
08:09PM 45.5887 -122.5969 161° South  Level Estimated